ADDS METAR Data INFO
IDs: Format: Raw Decoded Include TAF

Data at: 1156 UTC 25 Jun 2018

K5C1 251135Z AUTO 17008KT 10SM OVC010 22/22 A2999 RMK AO1
K5C1 251115Z AUTO 17003KT 10SM BKN008 BKN012 OVC019 22/22 A2998 RMK AO1
K5C1 251055Z AUTO 00000KT 10SM BKN010 OVC020 22/22 A2997 RMK AO1
K5C1 251035Z AUTO 16003KT 10SM OVC012 23/22 A2996 RMK AO1
K5C1 251015Z AUTO 17004G16KT 10SM BKN014 BKN031 OVC038 23/21 A2995 RMK AO1
K5C1 250955Z AUTO 18009G18KT 10SM OVC012 23/21 A2995 RMK AO1
K5C1 250935Z AUTO 18008G17KT 10SM BKN014 BKN020 OVC033 23/21 A2995 RMK AO1
K5C1 250915Z AUTO 17009G23KT 10SM BKN014 BKN020 OVC033 23/21 A2995 RMK AO1
K5C1 250855Z AUTO 17013G17KT 10SM BKN014 OVC020 23/21 A2995 RMK AO1
K5C1 250835Z AUTO 17007KT 10SM BKN015 OVC020 23/21 A2995 RMK AO1
K5C1 250815Z AUTO 00000KT 10SM BKN019 BKN024 23/21 A2996 RMK AO1
K5C1 250755Z AUTO 18010G19KT 10SM BKN019 23/21 A2995 RMK AO1
K5C1 250735Z AUTO 16010G14KT 10SM BKN015 OVC021 23/21 A2996 RMK AO1
K5C1 250715Z AUTO 16010G18KT 10SM BKN015 OVC025 24/21 A2996 RMK AO1
K5C1 250655Z AUTO 16009G16KT 10SM BKN015 OVC023 23/21 A2996 RMK AO1
K5C1 250635Z AUTO 17013G16KT 10SM BKN015 OVC022 24/21 A2996 RMK AO1
K5C1 250615Z AUTO 16010G16KT 10SM OVC017 24/21 A2996 RMK AO1
K5C1 250555Z AUTO 16008G15KT 10SM BKN019 24/21 A2996 RMK AO1
K5C1 250535Z AUTO 17006KT 10SM BKN019 24/21 A2996 RMK AO1
K5C1 250515Z AUTO 16009KT 10SM SCT021 24/20 A2996 RMK AO1
K5C1 250455Z AUTO 16007G18KT 10SM CLR 25/20 A2995 RMK AO1
K5C1 250435Z AUTO 16008G14KT 10SM CLR 25/20 A2994 RMK AO1
K5C1 250415Z AUTO 17007KT 10SM CLR 25/19 A2994 RMK AO1
K5C1 250355Z AUTO 16009KT 10SM CLR 26/20 A2994 RMK AO1
K5C1 250335Z AUTO 15008KT 10SM SCT030 SCT035 26/20 A2993 RMK AO1
K5C1 250315Z AUTO 16011G15KT 10SM BKN030 BKN035 27/20 A2992 RMK AO1
K5C1 250255Z AUTO 15012G18KT 10SM BKN032 27/20 A2991 RMK AO1
K5C1 250235Z AUTO 14010G16KT 10SM CLR 27/20 A2989 RMK AO1
K5C1 250215Z AUTO 16011G16KT 10SM SCT038 28/20 A2989 RMK AO1
K5C1 250155Z AUTO 16009G16KT 10SM SCT038 28/20 A2988 RMK AO1
K5C1 250135Z AUTO 15011G18KT 10SM CLR 28/20 A2988 RMK AO1
K5C1 250115Z AUTO 16012G20KT 10SM CLR 30/20 A2987 RMK AO1
K5C1 250055Z AUTO 15014G18KT 10SM CLR 30/19 A2986 RMK AO1
K5C1 250035Z AUTO 14015G19KT 10SM CLR 31/19 A2985 RMK AO1
K5C1 250015Z AUTO 14008G19KT 10SM CLR 31/19 A2985 RMK AO1
K5C1 242355Z AUTO 15012G23KT 10SM CLR 32/19 A2985 RMK AO1
K5C1 242335Z AUTO 15008G20KT 10SM SCT050 32/19 A2985 RMK AO1
K5C1 242315Z AUTO 15011G19KT 10SM SCT050 33/19 A2985 RMK AO1
K5C1 242255Z AUTO 17014G17KT 10SM SCT055 33/18 A2986 RMK AO1
K5C1 242235Z AUTO 16016G23KT 10SM CLR 34/18 A2987 RMK AO1
K5C1 242215Z AUTO 16014G22KT 10SM CLR 35/18 A2987 RMK AO1
K5C1 242155Z AUTO 16017G23KT 10SM CLR 34/18 A2987 RMK AO1
K5C1 242135Z AUTO 15014G21KT 10SM CLR 34/17 A2988 RMK AO1
K5C1 242115Z AUTO 17015G21KT 10SM SCT055 34/17 A2989 RMK AO1
K5C1 242055Z AUTO 15017G21KT 10SM SCT055 34/18 A2989 RMK AO1
K5C1 242035Z AUTO 15014G22KT 10SM SCT055 33/17 A2990 RMK AO1
K5C1 242015Z AUTO 19012G18KT 140V210 10SM SCT055 34/18 A2989 RMK AO1
K5C1 241955Z AUTO 15012G18KT 10SM SCT055 34/18 A2989 RMK AO1
K5C1 241935Z AUTO 19008G21KT 10SM SCT055 33/18 A2990 RMK AO1
K5C1 241915Z AUTO 15013G22KT 10SM CLR 33/17 A2990 RMK AO1
K5C1 241855Z AUTO 19010G17KT 10SM SCT055 33/18 A2990 RMK AO1
K5C1 241835Z AUTO 17014G19KT 10SM CLR 33/18 A2990 RMK AO1
K5C1 241815Z AUTO 16012G15KT 10SM CLR 32/19 A2990 RMK AO1
K5C1 241755Z AUTO 18011G17KT 10SM CLR 32/18 A2990 RMK AO1
K5C1 241735Z AUTO 19012G17KT 10SM CLR 31/19 A2990 RMK AO1
K5C1 241715Z AUTO 17013G18KT 10SM CLR 31/20 A2990 RMK AO1
K5C1 241655Z AUTO 16012G19KT 10SM CLR 30/20 A2990 RMK AO1
K5C1 241635Z AUTO 19014G18KT 10SM CLR 30/20 A2990 RMK AO1
K5C1 241615Z AUTO 20011G19KT 10SM CLR 29/19 A2990 RMK AO1
K5C1 241555Z AUTO 20012G17KT 10SM SCT028 28/20 A2991 RMK AO1
K5C1 241535Z AUTO 18009KT 10SM SCT028 SCT033 28/20 A2991 RMK AO1
K5C1 241515Z AUTO 18011G18KT 10SM SCT023 27/20 A2991 RMK AO1
K5C1 241455Z AUTO 17011G17KT 10SM BKN023 27/20 A2991 RMK AO1
K5C1 241435Z AUTO 18015G21KT 10SM BKN021 26/20 A2991 RMK AO1
K5C1 241415Z AUTO 17015G21KT 10SM BKN017 BKN024 26/21 A2990 RMK AO1
K5C1 241355Z AUTO 17013G18KT 10SM BKN015 OVC020 25/21 A2991 RMK AO1
K5C1 241335Z AUTO 19014G20KT 10SM OVC013 25/21 A2990 RMK AO1
K5C1 241315Z AUTO 19016G21KT 7SM OVC013 24/21 A2989 RMK AO1
K5C1 241255Z AUTO 18013G20KT 7SM OVC011 23/21 A2989 RMK AO1
K5C1 241235Z AUTO 18011G18KT 7SM OVC011 23/21 A2988 RMK AO1
K5C1 241215Z AUTO 18009KT 7SM BKN013 OVC018 23/21 A2988 RMK AO1
K5C1 241155Z AUTO 18010G14KT 7SM SCT012 BKN019 23/21 A2988 RMK AO1
K5C1 241135Z AUTO 17008KT 7SM SCT019 23/21 A2989 RMK AO1
K5C1 241115Z AUTO 17009KT 10SM SCT014 23/21 A2989 RMK AO1
K5C1 241055Z AUTO 17009G14KT 10SM SCT014 23/21 A2989 RMK AO1
K5C1 241035Z AUTO 18008G14KT 10SM BKN014 BKN021 OVC025 23/22 A2990 RMK AO1
K5C1 241015Z AUTO 17010KT 10SM SCT015 BKN022 OVC028 23/21 A2990 RMK AO1
K5C1 240955Z AUTO 17005KT 10SM SCT017 BKN021 OVC032 23/21 A2991 RMK AO1
K5C1 240935Z AUTO 17005KT 10SM BKN017 BKN024 OVC032 23/21 A2991 RMK AO1
K5C1 240915Z AUTO 17005KT 10SM SCT019 BKN028 OVC034 24/21 A2991 RMK AO1
K5C1 240855Z AUTO 16005KT 10SM SCT019 SCT028 OVC034 24/21 A2992 RMK AO1
K5C1 240835Z AUTO 16005KT 10SM SCT019 BKN026 OVC034 24/21 A2993 RMK AO1
K5C1 240815Z AUTO 15007KT 10SM BKN017 BKN026 BKN032 24/21 A2992 RMK AO1
K5C1 240755Z AUTO 15005KT 10SM BKN017 BKN024 OVC032 25/22 A2993 RMK AO1
K5C1 240735Z AUTO 14004KT 10SM BKN017 OVC024 25/22 A2994 RMK AO1
K5C1 240715Z AUTO 16005KT 10SM BKN015 OVC021 25/22 A2993 RMK AO1
K5C1 240655Z AUTO 16007KT 10SM BKN015 OVC019 25/22 A2992 RMK AO1
K5C1 240635Z AUTO 17011G19KT 10SM OVC013 25/22 A2990 RMK AO1
K5C1 240615Z AUTO 16012G17KT 10SM OVC013 25/22 A2990 RMK AO1
K5C1 240555Z AUTO 16013G19KT 10SM OVC013 26/23 A2989 RMK AO1
K5C1 240535Z AUTO 16008KT 10SM OVC013 26/23 A2989 RMK AO1
K5C1 240515Z AUTO 16011G17KT 10SM OVC013 26/23 A2988 RMK AO1
K5C1 240455Z AUTO 17011G17KT 10SM BKN015 OVC020 26/23 A2988 RMK AO1
K5C1 240435Z AUTO 17014G21KT 10SM OVC017 26/23 A2988 RMK AO1
K5C1 240415Z AUTO 16011G19KT 10SM OVC015 26/23 A2987 RMK AO1
K5C1 240355Z AUTO 16010KT 10SM OVC017 27/23 A2985 RMK AO1
K5C1 240335Z AUTO 15009G14KT 10SM OVC019 27/23 A2984 RMK AO1
K5C1 240315Z AUTO 15011G17KT 10SM OVC023 27/23 A2982 RMK AO1
K5C1 240255Z AUTO 15010G18KT 10SM BKN023 BKN033 28/23 A2981 RMK AO1
K5C1 240235Z AUTO 15009G18KT 10SM SCT025 SCT033 28/22 A2980 RMK AO1
K5C1 240215Z AUTO 15009G21KT 120V180 10SM SCT031 28/22 A2980 RMK AO1
K5C1 240155Z AUTO 15011G17KT 10SM CLR 30/22 A2979 RMK AO1
K5C1 240135Z AUTO 15007G15KT 10SM CLR 30/22 A2979 RMK AO1
K5C1 240115Z AUTO 14011G17KT 10SM SCT048 31/21 A2979 RMK AO1
K5C1 240055Z AUTO 16012G17KT 10SM CLR 32/20 A2979 RMK AO1
K5C1 240035Z AUTO 18010G19KT 10SM CLR 32/19 A2978 RMK AO1
K5C1 240015Z AUTO 17010G17KT 10SM CLR 33/20 A2978 RMK AO1